createdAt,value
2022-10-14T00:00:17.299Z,9.55
2022-10-14T00:01:40.196Z,9.53
2022-10-14T00:02:48.383Z,9.52
2022-10-14T00:03:51.319Z,9.53
2022-10-14T00:04:55.910Z,9.55
2022-10-14T00:05:58.852Z,9.56
2022-10-14T00:07:01.691Z,9.56
2022-10-14T00:08:04.566Z,9.57
2022-10-14T00:09:08.807Z,9.57
2022-10-14T00:10:11.884Z,9.57
2022-10-14T00:11:16.106Z,9.56
2022-10-14T00:12:19.022Z,9.54
2022-10-14T00:13:21.907Z,9.54
2022-10-14T00:14:24.787Z,9.54
2022-10-14T00:15:28.864Z,9.54
2022-10-14T00:16:33.399Z,9.54
2022-10-14T00:17:36.595Z,9.53
2022-10-14T00:18:39.460Z,9.52
2022-10-14T00:19:42.494Z,9.51
2022-10-14T00:20:53.851Z,9.50
2022-10-14T00:21:56.795Z,9.49
2022-10-14T00:22:59.717Z,9.49
2022-10-14T00:24:02.672Z,9.48
2022-10-14T00:25:05.758Z,9.47
2022-10-14T00:26:31.017Z,9.47
2022-10-14T00:27:33.871Z,9.47
2022-10-14T00:28:38.007Z,9.46
2022-10-14T00:29:41.016Z,9.43
2022-10-14T00:30:52.793Z,9.39
2022-10-14T00:31:55.830Z,9.36
2022-10-14T00:32:58.863Z,9.32
2022-10-14T00:34:01.876Z,9.29
2022-10-14T00:35:05.242Z,9.26
2022-10-14T00:36:09.057Z,9.24
2022-10-14T00:37:12.226Z,9.23
2022-10-14T00:38:15.322Z,9.23
2022-10-14T00:39:18.396Z,9.24
2022-10-14T00:40:21.452Z,9.26
2022-10-14T00:41:29.598Z,9.27
2022-10-14T00:42:33.966Z,9.28
2022-10-14T00:43:55.330Z,9.28
2022-10-14T00:44:59.913Z,9.29
2022-10-14T00:46:02.784Z,9.30
2022-10-14T00:47:05.847Z,9.31
2022-10-14T00:48:09.573Z,9.32
2022-10-14T00:49:15.514Z,9.33
2022-10-14T00:50:20.115Z,9.34
2022-10-14T00:51:23.076Z,9.35
2022-10-14T00:52:27.125Z,9.36
2022-10-14T00:53:30.152Z,9.37
2022-10-14T00:54:39.311Z,9.37
2022-10-14T00:55:42.731Z,9.37
2022-10-14T00:56:48.118Z,9.36
2022-10-14T00:57:51.029Z,9.36
2022-10-14T00:58:55.017Z,9.37
2022-10-14T01:00:04.603Z,9.38
2022-10-14T01:01:08.275Z,9.37
2022-10-14T01:02:11.279Z,9.36
2022-10-14T01:03:21.355Z,9.35
2022-10-14T01:04:25.277Z,9.34
2022-10-14T01:05:31.746Z,9.33
2022-10-14T01:06:53.078Z,9.33
2022-10-14T01:08:11.046Z,9.32
2022-10-14T01:09:20.143Z,9.31
2022-10-14T01:10:28.941Z,9.30
2022-10-14T01:11:32.071Z,9.30
2022-10-14T01:12:37.702Z,9.30
2022-10-14T01:13:42.388Z,9.29
2022-10-14T01:14:45.331Z,9.28
2022-10-14T01:15:57.272Z,9.25
2022-10-14T01:17:13.538Z,9.23
2022-10-14T01:18:16.442Z,9.21
2022-10-14T01:19:37.270Z,9.19
2022-10-14T01:20:58.234Z,9.17
2022-10-14T01:22:08.181Z,9.14
2022-10-14T01:23:17.247Z,9.12
2022-10-14T01:24:20.144Z,9.09
2022-10-14T01:25:33.619Z,9.07
2022-10-14T01:26:36.819Z,9.04
2022-10-14T01:27:39.835Z,9.04
2022-10-14T01:29:01.457Z,9.05
2022-10-14T01:30:16.694Z,9.03
2022-10-14T01:31:22.467Z,8.97
2022-10-14T01:32:27.952Z,8.95
2022-10-14T01:33:35.776Z,8.93
2022-10-14T01:34:42.321Z,8.93
2022-10-14T01:35:45.234Z,8.92
2022-10-14T01:36:51.518Z,8.91
2022-10-14T01:38:07.219Z,8.89
2022-10-14T01:39:13.445Z,8.87
2022-10-14T01:40:26.660Z,8.83
2022-10-14T01:41:44.759Z,8.83
2022-10-14T01:42:47.941Z,8.81
2022-10-14T01:43:52.181Z,8.81
2022-10-14T01:44:59.087Z,8.81
2022-10-14T01:46:03.540Z,8.79
2022-10-14T01:47:06.805Z,8.78
2022-10-14T01:48:11.408Z,8.76
2022-10-14T01:49:16.203Z,8.75
2022-10-14T01:50:21.383Z,8.73
2022-10-14T01:51:28.627Z,8.70
2022-10-14T01:52:33.931Z,8.68
2022-10-14T01:53:40.716Z,8.67
2022-10-14T01:54:47.012Z,8.68
2022-10-14T01:55:52.196Z,8.68
2022-10-14T01:56:55.730Z,8.67
2022-10-14T01:57:59.238Z,8.67
2022-10-14T01:59:03.237Z,8.67
2022-10-14T02:00:07.363Z,8.66
2022-10-14T02:01:17.389Z,8.65
2022-10-14T02:02:21.731Z,8.65
2022-10-14T02:03:24.844Z,8.63
2022-10-14T02:04:27.724Z,8.63
2022-10-14T02:05:30.623Z,8.63
2022-10-14T02:06:35.444Z,8.61
2022-10-14T02:07:42.828Z,8.60
2022-10-14T02:08:48.607Z,8.59
2022-10-14T02:09:57.560Z,8.57
2022-10-14T02:11:15.714Z,8.55
2022-10-14T02:12:29.286Z,8.52
2022-10-14T02:13:50.556Z,8.50
2022-10-14T02:15:11.767Z,8.47
2022-10-14T02:16:34.411Z,8.45
2022-10-14T02:17:40.532Z,8.43
2022-10-14T02:18:54.336Z,8.43
2022-10-14T02:20:14.174Z,8.42
2022-10-14T02:21:24.659Z,8.39
2022-10-14T02:22:27.560Z,8.38
2022-10-14T02:23:33.363Z,8.36
2022-10-14T02:24:39.547Z,8.35
2022-10-14T02:25:44.838Z,8.34
2022-10-14T02:26:50.329Z,8.34
2022-10-14T02:27:54.498Z,8.33
2022-10-14T02:28:58.334Z,8.33
2022-10-14T02:30:01.854Z,8.32
2022-10-14T02:32:47.289Z,8.29
2022-10-14T02:33:53.203Z,8.29
2022-10-14T02:34:58.080Z,8.29
2022-10-14T02:36:02.254Z,8.29
2022-10-14T02:37:06.105Z,8.28
2022-10-14T02:38:09.453Z,8.28
2022-10-14T02:39:15.718Z,8.27
2022-10-14T02:40:23.743Z,8.26
2022-10-14T02:41:30.702Z,8.26
2022-10-14T02:42:33.763Z,8.27
2022-10-14T02:43:39.778Z,8.27
2022-10-14T02:44:55.874Z,8.25
2022-10-14T02:46:00.343Z,8.26
2022-10-14T02:47:03.788Z,8.25
2022-10-14T02:48:06.764Z,8.25
2022-10-14T02:49:09.665Z,8.24
2022-10-14T02:50:12.940Z,8.24
2022-10-14T02:51:16.373Z,8.24
2022-10-14T02:52:20.913Z,8.24
2022-10-14T02:53:24.386Z,8.23
2022-10-14T02:54:27.386Z,8.24
2022-10-14T02:55:30.388Z,8.24
2022-10-14T02:56:33.347Z,8.25
2022-10-14T02:57:36.589Z,8.25
2022-10-14T02:58:39.553Z,8.25
2022-10-14T02:59:42.499Z,8.25
2022-10-14T03:00:45.482Z,8.25
2022-10-14T03:01:48.497Z,8.26
2022-10-14T03:02:51.462Z,8.26
2022-10-14T03:03:54.638Z,8.27
2022-10-14T03:04:59.165Z,8.28
2022-10-14T03:06:02.127Z,8.29
2022-10-14T03:07:05.406Z,8.29
2022-10-14T03:08:11.064Z,8.30
2022-10-14T03:09:14.579Z,8.30
2022-10-14T03:10:18.026Z,8.30
2022-10-14T03:11:20.979Z,8.31
2022-10-14T03:12:24.404Z,8.31
2022-10-14T03:13:28.797Z,8.32
2022-10-14T03:14:31.729Z,8.31
2022-10-14T03:15:34.680Z,8.31
2022-10-14T03:16:38.033Z,8.32
2022-10-14T03:17:42.132Z,8.32
2022-10-14T03:18:45.512Z,8.32
2022-10-14T03:19:59.402Z,8.32
2022-10-14T03:21:02.573Z,8.32
2022-10-14T03:22:10.345Z,8.33
2022-10-14T03:23:14.671Z,8.34
2022-10-14T03:24:18.803Z,8.34
2022-10-14T03:25:24.190Z,8.35
2022-10-14T03:26:33.090Z,8.35
2022-10-14T03:27:36.046Z,8.35
2022-10-14T03:28:42.607Z,8.36
2022-10-14T03:30:11.756Z,8.36
2022-10-14T03:31:21.517Z,8.37
2022-10-14T03:32:47.091Z,8.38
2022-10-14T03:34:21.445Z,8.39
2022-10-14T03:35:27.626Z,8.39
2022-10-14T03:36:31.542Z,8.40
2022-10-14T03:37:34.567Z,8.40
2022-10-14T03:38:38.811Z,8.41
2022-10-14T03:39:43.695Z,8.41
2022-10-14T03:40:47.491Z,8.42
2022-10-14T03:41:50.620Z,8.42
2022-10-14T03:42:58.487Z,8.42
2022-10-14T03:44:03.700Z,8.41
2022-10-14T03:45:09.210Z,8.39
2022-10-14T03:46:14.133Z,8.40
2022-10-14T03:47:17.808Z,8.39
2022-10-14T03:48:20.998Z,8.38
2022-10-14T03:49:24.061Z,8.38
2022-10-14T03:50:27.159Z,8.37
2022-10-14T03:51:30.880Z,8.36
2022-10-14T03:52:46.597Z,8.35
2022-10-14T03:53:56.009Z,8.34
2022-10-14T03:55:02.906Z,8.34
2022-10-14T03:56:06.794Z,8.33
2022-10-14T03:57:11.442Z,8.32
2022-10-14T03:58:19.893Z,8.32
2022-10-14T03:59:26.209Z,8.29
2022-10-14T04:00:29.934Z,8.29
2022-10-14T04:01:44.661Z,8.27
2022-10-14T04:02:56.356Z,8.26
2022-10-14T04:04:06.014Z,8.25
2022-10-14T04:05:10.415Z,8.24
2022-10-14T04:06:14.712Z,8.23
2022-10-14T04:07:19.246Z,8.23
2022-10-14T04:08:27.360Z,8.21
2022-10-14T04:09:34.327Z,8.20
2022-10-14T04:10:37.230Z,8.19
2022-10-14T04:11:40.406Z,8.18
2022-10-14T04:12:45.983Z,8.17
2022-10-14T04:13:58.281Z,8.16
2022-10-14T04:15:01.666Z,8.15
2022-10-14T04:16:09.544Z,8.15
2022-10-14T04:17:18.463Z,8.14
2022-10-14T04:18:22.361Z,8.14
2022-10-14T04:19:25.704Z,8.13
2022-10-14T04:20:30.282Z,8.11
2022-10-14T04:21:33.454Z,8.10
2022-10-14T04:22:36.626Z,8.09
2022-10-14T04:23:40.665Z,8.08
2022-10-14T04:24:49.010Z,8.08
2022-10-14T04:25:52.054Z,8.07
2022-10-14T04:26:55.516Z,8.06
2022-10-14T04:28:18.851Z,8.05
2022-10-14T04:29:25.546Z,8.04
2022-10-14T04:30:36.621Z,8.02
2022-10-14T04:31:41.218Z,8.01
2022-10-14T04:32:44.256Z,8.00
2022-10-14T04:33:47.196Z,8.00
2022-10-14T04:34:55.347Z,8.00
2022-10-14T04:36:05.446Z,7.99
2022-10-14T04:37:11.454Z,7.98
2022-10-14T04:38:28.565Z,7.97
2022-10-14T04:39:35.155Z,7.97
2022-10-14T04:40:38.347Z,7.96
2022-10-14T04:41:57.080Z,7.95
2022-10-14T04:43:00.064Z,7.94
2022-10-14T04:44:07.586Z,7.93
2022-10-14T04:45:16.533Z,7.93
2022-10-14T04:46:22.765Z,7.92
2022-10-14T04:47:25.629Z,7.92
2022-10-14T04:48:31.780Z,7.92
2022-10-14T04:49:34.965Z,7.91
2022-10-14T04:50:52.880Z,7.90
2022-10-14T04:52:16.061Z,7.89
2022-10-14T04:53:25.509Z,7.89
2022-10-14T04:54:48.651Z,7.87
2022-10-14T04:55:51.805Z,7.87
2022-10-14T04:56:55.048Z,7.86
2022-10-14T04:57:57.925Z,7.85
2022-10-14T04:59:03.154Z,7.85
2022-10-14T05:00:29.264Z,7.84
2022-10-14T05:01:39.075Z,7.82
2022-10-14T05:02:42.115Z,7.81
2022-10-14T05:03:45.351Z,7.80
2022-10-14T05:04:48.269Z,7.80
2022-10-14T05:05:52.047Z,7.79
2022-10-14T05:06:55.305Z,7.78
2022-10-14T05:07:59.396Z,7.78
2022-10-14T05:09:14.117Z,7.78
2022-10-14T05:10:17.090Z,7.77
2022-10-14T05:11:20.017Z,7.77
2022-10-14T05:12:28.980Z,7.76
2022-10-14T05:13:34.860Z,7.75
2022-10-14T05:14:40.838Z,7.74
2022-10-14T05:15:50.700Z,7.73
2022-10-14T05:16:55.051Z,7.72
2022-10-14T05:18:01.881Z,7.70
2022-10-14T05:19:17.671Z,7.69
2022-10-14T05:20:24.503Z,7.68
2022-10-14T05:21:29.093Z,7.67
2022-10-14T05:22:48.106Z,7.67
2022-10-14T05:23:51.130Z,7.66
2022-10-14T05:24:54.603Z,7.65
2022-10-14T05:25:57.691Z,7.65
2022-10-14T05:27:01.077Z,7.64
2022-10-14T05:28:05.138Z,7.64
2022-10-14T05:29:10.040Z,7.64
2022-10-14T05:30:14.339Z,7.64
2022-10-14T05:31:21.305Z,7.64
2022-10-14T05:32:35.556Z,7.64
2022-10-14T05:33:41.373Z,7.64
2022-10-14T05:34:44.478Z,7.64
2022-10-14T05:36:00.072Z,7.64
2022-10-14T05:37:05.594Z,7.64
2022-10-14T05:38:13.676Z,7.64
2022-10-14T05:39:18.383Z,7.64
2022-10-14T05:40:21.258Z,7.64
2022-10-14T05:41:25.249Z,7.65
2022-10-14T05:42:28.121Z,7.65
2022-10-14T05:43:33.168Z,7.66
2022-10-14T05:44:37.617Z,7.66
2022-10-14T05:45:41.179Z,7.66
2022-10-14T05:46:44.585Z,7.66
2022-10-14T05:47:47.521Z,7.67
2022-10-14T05:48:53.270Z,7.67
2022-10-14T05:49:56.248Z,7.68
2022-10-14T05:51:02.488Z,7.68
2022-10-14T05:52:06.848Z,7.69
2022-10-14T05:53:10.465Z,7.68
2022-10-14T05:54:17.411Z,7.68
2022-10-14T05:55:20.427Z,7.67
2022-10-14T05:56:23.754Z,7.67
2022-10-14T05:57:28.340Z,7.67
2022-10-14T05:58:31.514Z,7.67
2022-10-14T05:59:35.527Z,7.67
2022-10-14T06:00:38.570Z,7.66
2022-10-14T06:01:44.326Z,7.67
2022-10-14T06:02:47.379Z,7.67
2022-10-14T06:03:52.859Z,7.67
2022-10-14T06:04:55.827Z,7.68
2022-10-14T06:05:59.943Z,7.67
2022-10-14T06:07:03.409Z,7.68
2022-10-14T06:08:06.600Z,7.69
2022-10-14T06:09:12.115Z,7.69
2022-10-14T06:10:15.774Z,7.70
2022-10-14T06:11:19.228Z,7.71
2022-10-14T06:12:22.495Z,7.70
2022-10-14T06:13:26.426Z,7.71
2022-10-14T06:14:29.941Z,7.72
2022-10-14T06:15:34.522Z,7.72
2022-10-14T06:16:37.612Z,7.72
2022-10-14T06:17:42.318Z,7.74
2022-10-14T06:18:45.809Z,7.74
2022-10-14T06:19:48.683Z,7.75
2022-10-14T06:20:52.775Z,7.76
2022-10-14T06:21:55.790Z,7.77
2022-10-14T06:22:59.748Z,7.77
2022-10-14T06:24:02.866Z,7.77
2022-10-14T06:25:05.945Z,7.77
2022-10-14T06:26:09.861Z,7.77
2022-10-14T06:27:13.479Z,7.77
2022-10-14T06:28:16.548Z,7.78
2022-10-14T06:29:19.820Z,7.79
2022-10-14T06:30:22.715Z,7.80
2022-10-14T06:31:29.856Z,7.81
2022-10-14T06:32:35.390Z,7.81
2022-10-14T06:33:38.290Z,7.80
2022-10-14T06:34:41.459Z,7.80
2022-10-14T06:35:44.261Z,7.81
2022-10-14T06:36:47.211Z,7.83
2022-10-14T06:37:50.121Z,7.84
2022-10-14T06:38:53.194Z,7.85
2022-10-14T06:39:56.331Z,7.86
2022-10-14T06:40:59.233Z,7.88
2022-10-14T06:42:03.687Z,7.91
2022-10-14T06:43:06.577Z,7.95
2022-10-14T06:44:09.673Z,7.99
2022-10-14T06:45:12.778Z,8.07
2022-10-14T06:46:16.062Z,8.17
2022-10-14T06:47:18.967Z,8.26
2022-10-14T06:48:21.782Z,8.34
2022-10-14T06:49:24.624Z,8.41
2022-10-14T06:50:27.745Z,8.46
2022-10-14T06:51:30.574Z,8.50
2022-10-14T06:52:33.409Z,8.53
2022-10-14T06:53:36.489Z,8.57
2022-10-14T06:54:40.412Z,8.60
2022-10-14T06:55:44.855Z,8.63
2022-10-14T06:56:47.745Z,8.66
2022-10-14T06:57:50.687Z,8.70
2022-10-14T06:58:55.070Z,8.74
2022-10-14T06:59:58.186Z,8.77
2022-10-14T07:01:04.386Z,8.81
2022-10-14T07:02:07.333Z,8.85
2022-10-14T07:03:10.315Z,8.88
2022-10-14T07:04:13.322Z,8.91
2022-10-14T07:05:16.845Z,8.93
2022-10-14T07:06:20.254Z,8.96
2022-10-14T07:07:23.017Z,8.99
2022-10-14T07:08:26.113Z,9.02
2022-10-14T07:09:29.286Z,9.04
2022-10-14T07:10:32.194Z,9.07
2022-10-14T07:11:35.558Z,9.09
2022-10-14T07:12:38.624Z,9.12
2022-10-14T07:13:41.405Z,9.16
2022-10-14T07:14:44.677Z,9.20
2022-10-14T07:15:48.250Z,9.25
2022-10-14T07:16:54.362Z,9.29
2022-10-14T07:17:57.311Z,9.31
2022-10-14T07:19:00.288Z,9.34
2022-10-14T07:20:03.384Z,9.36
2022-10-14T07:21:06.905Z,9.38
2022-10-14T07:22:10.467Z,9.43
2022-10-14T07:23:13.542Z,9.45
2022-10-14T07:24:16.736Z,9.48
2022-10-14T07:25:20.224Z,9.50
2022-10-14T07:26:23.918Z,9.55
2022-10-14T07:27:27.241Z,9.60
2022-10-14T07:28:30.263Z,9.66
2022-10-14T07:29:33.191Z,9.71
2022-10-14T07:30:36.332Z,9.75
2022-10-14T07:31:39.216Z,9.80
2022-10-14T07:32:42.345Z,9.84
2022-10-14T07:33:46.413Z,9.89
2022-10-14T07:34:49.352Z,9.94
2022-10-14T07:35:52.424Z,9.97
2022-10-14T07:36:55.307Z,10.00
2022-10-14T07:37:58.495Z,10.04
2022-10-14T07:39:01.531Z,10.08
2022-10-14T07:40:04.607Z,10.12
2022-10-14T07:41:16.515Z,10.15
2022-10-14T07:43:28.843Z,10.23
2022-10-14T07:44:31.811Z,10.26
2022-10-14T07:45:36.372Z,10.27
2022-10-14T07:46:40.910Z,10.30
2022-10-14T07:47:44.712Z,10.36
2022-10-14T07:48:56.737Z,10.42
2022-10-14T07:50:02.051Z,10.46
2022-10-14T07:51:14.517Z,10.52
2022-10-14T07:52:19.687Z,10.59
2022-10-14T07:53:23.328Z,10.66
2022-10-14T07:54:29.365Z,10.73
2022-10-14T07:55:34.281Z,10.77
2022-10-14T07:56:38.879Z,10.81
2022-10-14T07:57:42.185Z,10.86
2022-10-14T07:58:46.377Z,10.91
2022-10-14T07:59:49.523Z,10.99
2022-10-14T08:00:53.338Z,11.03
2022-10-14T08:01:56.790Z,11.03
2022-10-14T08:02:59.922Z,11.07
2022-10-14T08:04:03.693Z,11.12
2022-10-14T08:06:29.871Z,11.23
2022-10-14T08:07:33.425Z,11.27
2022-10-14T08:08:36.378Z,11.31
2022-10-14T08:09:41.732Z,11.34
2022-10-14T08:10:44.706Z,11.40
2022-10-14T08:11:47.876Z,11.48
2022-10-14T08:12:51.265Z,11.54
2022-10-14T08:13:54.838Z,11.58
2022-10-14T08:15:00.474Z,11.62
2022-10-14T08:16:11.661Z,11.66
2022-10-14T08:17:14.865Z,11.68
2022-10-14T08:18:20.041Z,11.72
2022-10-14T08:19:23.239Z,11.74
2022-10-14T08:20:26.148Z,11.77
2022-10-14T08:21:29.334Z,11.80
2022-10-14T08:22:32.278Z,11.80
2022-10-14T08:23:35.520Z,11.84
2022-10-14T08:24:38.595Z,11.87
2022-10-14T08:25:41.517Z,11.92
2022-10-14T08:26:54.727Z,11.99
2022-10-14T08:27:58.755Z,12.14
2022-10-14T08:29:03.668Z,12.23
2022-10-14T08:30:10.239Z,12.27
2022-10-14T08:31:14.183Z,12.26
2022-10-14T08:32:17.448Z,12.25
2022-10-14T08:33:20.383Z,12.27
2022-10-14T08:34:24.585Z,12.30
2022-10-14T08:35:27.919Z,12.35
2022-10-14T08:36:30.915Z,12.39
2022-10-14T08:37:34.080Z,12.43
2022-10-14T08:38:37.115Z,12.48
2022-10-14T08:39:39.970Z,12.52
2022-10-14T08:40:55.778Z,12.55
2022-10-14T08:42:35.191Z,12.60
2022-10-14T08:43:57.005Z,12.63
2022-10-14T08:45:08.853Z,12.65
2022-10-14T08:46:26.925Z,12.67
2022-10-14T08:47:37.321Z,12.71
2022-10-14T08:48:40.612Z,12.75
2022-10-14T08:49:46.655Z,12.78
2022-10-14T08:51:13.458Z,12.81
2022-10-14T08:52:22.965Z,12.85
2022-10-14T08:53:28.971Z,12.89
2022-10-14T08:54:37.770Z,12.94
2022-10-14T08:55:45.050Z,12.98
2022-10-14T08:56:47.889Z,13.01
2022-10-14T08:57:54.293Z,13.05
2022-10-14T08:59:01.244Z,13.10
2022-10-14T09:00:14.133Z,13.14
2022-10-14T09:01:33.416Z,13.21
2022-10-14T09:02:39.031Z,13.26
2022-10-14T09:03:42.207Z,13.29
2022-10-14T09:04:45.369Z,13.33
2022-10-14T09:05:56.582Z,13.35
2022-10-14T09:07:00.226Z,13.38
2022-10-14T09:08:03.130Z,13.42
2022-10-14T09:09:08.075Z,13.45
2022-10-14T09:10:18.548Z,13.48
2022-10-14T09:11:23.000Z,13.51
2022-10-14T09:12:28.288Z,13.53
2022-10-14T09:13:53.138Z,13.53
2022-10-14T09:14:59.812Z,13.53
2022-10-14T09:16:15.820Z,13.51
2022-10-14T09:17:33.974Z,13.51
2022-10-14T09:18:59.668Z,13.49
2022-10-14T09:20:17.403Z,13.47
2022-10-14T09:21:34.221Z,13.46
2022-10-14T09:22:58.848Z,13.47
2022-10-14T09:24:16.690Z,13.48
2022-10-14T09:25:19.562Z,13.49
2022-10-14T09:26:23.987Z,13.53
2022-10-14T09:27:28.559Z,13.58
2022-10-14T09:28:36.381Z,13.63
2022-10-14T09:29:56.816Z,13.68
2022-10-14T09:30:59.683Z,13.71
2022-10-14T09:32:05.321Z,13.76
2022-10-14T09:33:13.008Z,13.81
2022-10-14T09:34:20.752Z,13.87
2022-10-14T09:35:26.202Z,13.95
2022-10-14T09:36:29.579Z,14.02
2022-10-14T09:37:34.084Z,14.11
2022-10-14T09:38:37.268Z,14.19
2022-10-14T09:39:41.054Z,14.29
2022-10-14T09:40:45.268Z,14.33
2022-10-14T09:41:51.461Z,14.37
2022-10-14T09:43:09.758Z,14.42
2022-10-14T09:44:23.267Z,14.52
2022-10-14T09:45:28.055Z,14.63
2022-10-14T09:46:31.073Z,14.72
2022-10-14T09:47:36.194Z,14.78
2022-10-14T09:48:48.596Z,14.83
2022-10-14T09:49:52.085Z,14.88
2022-10-14T09:51:00.108Z,14.93
2022-10-14T09:52:03.416Z,14.99
2022-10-14T09:53:15.468Z,15.03
2022-10-14T09:54:23.495Z,15.06
2022-10-14T09:55:28.556Z,15.11
2022-10-14T09:56:40.653Z,15.17
2022-10-14T09:57:56.851Z,15.22
2022-10-14T09:58:59.825Z,15.27
2022-10-14T10:00:04.342Z,15.31
2022-10-14T10:01:14.527Z,15.37
2022-10-14T10:02:25.847Z,15.43
2022-10-14T10:03:32.547Z,15.50
2022-10-14T10:04:47.125Z,15.57
2022-10-14T10:05:58.745Z,15.63
2022-10-14T10:07:06.399Z,15.72
2022-10-14T10:08:13.677Z,15.80
2022-10-14T10:09:20.276Z,15.88
2022-10-14T10:10:23.346Z,15.95
2022-10-14T10:11:30.827Z,16.00
2022-10-14T10:12:35.097Z,16.03
2022-10-14T10:13:46.473Z,16.08
2022-10-14T10:14:55.877Z,16.17
2022-10-14T10:15:59.746Z,16.25
2022-10-14T10:17:06.023Z,16.31
2022-10-14T10:18:18.688Z,16.39
2022-10-14T10:19:29.865Z,16.49
2022-10-14T10:20:33.635Z,16.55
2022-10-14T10:21:39.416Z,16.60
2022-10-14T10:22:43.079Z,16.65
2022-10-14T10:23:54.396Z,16.75
2022-10-14T10:25:00.736Z,16.87
2022-10-14T10:26:25.821Z,16.96
2022-10-14T10:27:36.686Z,17.04
2022-10-14T10:28:45.316Z,17.07
2022-10-14T10:29:48.414Z,17.08
2022-10-14T10:31:12.612Z,17.12
2022-10-14T10:32:42.658Z,17.21
2022-10-14T10:33:50.659Z,17.28
2022-10-14T10:34:56.752Z,17.36
2022-10-14T10:36:09.228Z,17.42
2022-10-14T10:37:14.873Z,17.46
2022-10-14T10:38:17.999Z,17.48
2022-10-14T10:39:38.932Z,17.51
2022-10-14T10:40:51.287Z,17.54
2022-10-14T10:42:13.043Z,17.56
2022-10-14T10:43:36.665Z,17.60
2022-10-14T10:45:02.680Z,17.64
2022-10-14T10:46:23.520Z,17.65
2022-10-14T10:47:41.764Z,17.60
2022-10-14T10:48:54.444Z,17.56
2022-10-14T10:50:16.180Z,17.57
2022-10-14T10:51:23.602Z,17.58
2022-10-14T10:52:41.770Z,17.58
2022-10-14T10:53:55.566Z,17.57
2022-10-14T10:55:03.972Z,17.55
2022-10-14T10:56:16.051Z,17.54
2022-10-14T10:57:52.809Z,17.49
2022-10-14T10:59:03.224Z,17.36
2022-10-14T11:00:09.061Z,17.29
2022-10-14T11:01:31.667Z,17.24
2022-10-14T11:02:46.020Z,17.19
2022-10-14T11:04:16.232Z,17.14
2022-10-14T11:05:23.462Z,17.13
2022-10-14T11:06:53.648Z,17.15
2022-10-14T11:08:16.152Z,17.24
2022-10-14T11:09:44.625Z,17.30
2022-10-14T11:11:09.339Z,17.29
2022-10-14T11:12:23.203Z,17.31
2022-10-14T11:13:29.373Z,17.32
2022-10-14T11:14:53.839Z,17.33
2022-10-14T11:16:07.629Z,17.40
2022-10-14T11:17:18.154Z,17.47
2022-10-14T11:18:27.745Z,17.53
2022-10-14T11:19:49.437Z,17.61
2022-10-14T11:20:54.728Z,17.75
2022-10-14T11:22:01.471Z,17.86
2022-10-14T11:23:10.476Z,17.95
2022-10-14T11:24:19.877Z,18.07
2022-10-14T11:25:41.475Z,18.22
2022-10-14T11:26:57.743Z,18.37
2022-10-14T11:28:01.143Z,18.46
2022-10-14T11:29:25.628Z,18.54
2022-10-14T11:30:58.085Z,18.63
2022-10-14T11:32:04.266Z,18.70
2022-10-14T11:33:21.735Z,18.76
2022-10-14T11:34:33.481Z,18.87
2022-10-14T11:35:44.651Z,18.97
2022-10-14T11:37:08.375Z,19.03
2022-10-14T11:38:15.940Z,19.05
2022-10-14T11:39:29.673Z,19.01
2022-10-14T11:40:39.077Z,19.02
2022-10-14T11:41:42.126Z,19.04
2022-10-14T11:43:07.938Z,19.05
2022-10-14T11:44:13.862Z,19.09
2022-10-14T11:45:20.269Z,19.06
2022-10-14T11:46:35.992Z,19.03
2022-10-14T11:47:39.572Z,19.00
2022-10-14T11:48:43.163Z,19.04
2022-10-14T11:50:00.760Z,19.06
2022-10-14T11:51:07.038Z,19.15
2022-10-14T11:52:35.930Z,19.26
2022-10-14T11:53:47.188Z,19.21
2022-10-14T11:55:19.524Z,19.15
2022-10-14T11:56:40.449Z,19.19
2022-10-14T11:57:56.719Z,19.28
2022-10-14T11:59:02.094Z,19.37
2022-10-14T12:00:24.785Z,19.42
2022-10-14T12:01:48.564Z,19.45
2022-10-14T12:02:54.260Z,19.44
2022-10-14T12:04:12.063Z,19.45
2022-10-14T12:05:31.390Z,19.42
2022-10-14T12:06:37.935Z,19.41
2022-10-14T12:07:48.407Z,19.38
2022-10-14T12:08:55.320Z,19.37
2022-10-14T12:10:01.255Z,19.31
2022-10-14T12:11:10.087Z,19.24
2022-10-14T12:12:14.292Z,19.23
2022-10-14T12:13:19.048Z,19.22
2022-10-14T12:14:36.706Z,19.15
2022-10-14T12:15:40.635Z,19.18
2022-10-14T12:16:46.231Z,19.20
2022-10-14T12:17:57.873Z,19.20
2022-10-14T12:19:00.995Z,19.10
2022-10-14T12:20:15.416Z,19.03
2022-10-14T12:21:30.165Z,18.97
2022-10-14T12:22:33.597Z,18.94
2022-10-14T12:23:43.485Z,18.93
2022-10-14T12:24:48.811Z,18.91
2022-10-14T12:26:19.002Z,18.86
2022-10-14T12:27:23.988Z,18.84
2022-10-14T12:28:27.424Z,18.88
2022-10-14T12:29:50.627Z,18.94
2022-10-14T12:31:13.429Z,18.99
2022-10-14T12:32:16.337Z,18.99
2022-10-14T12:33:22.854Z,18.94
2022-10-14T12:34:42.040Z,18.95
2022-10-14T12:35:45.071Z,18.99
2022-10-14T12:36:50.106Z,19.00
2022-10-14T12:37:54.353Z,19.07
2022-10-14T12:39:16.710Z,19.14
2022-10-14T12:40:26.100Z,19.24
2022-10-14T12:41:39.941Z,19.29
2022-10-14T12:42:57.868Z,19.33
2022-10-14T12:44:10.297Z,19.35
2022-10-14T12:45:21.181Z,19.39
2022-10-14T12:46:24.300Z,19.48
2022-10-14T12:47:40.735Z,19.51
2022-10-14T12:48:48.285Z,19.53
2022-10-14T12:49:53.278Z,19.56
2022-10-14T12:51:06.251Z,19.55
2022-10-14T12:52:09.389Z,19.54
2022-10-14T12:53:23.860Z,19.54
2022-10-14T12:54:27.828Z,19.45
2022-10-14T12:55:46.878Z,19.41
2022-10-14T12:56:55.636Z,19.38
2022-10-14T12:57:59.098Z,19.36
2022-10-14T12:59:03.809Z,19.34
2022-10-14T13:00:27.059Z,19.29
2022-10-14T13:01:35.305Z,19.19
2022-10-14T13:02:46.942Z,19.14
2022-10-14T13:03:55.097Z,19.09
2022-10-14T13:04:59.124Z,19.07
2022-10-14T13:06:22.621Z,19.07
2022-10-14T13:07:39.654Z,19.05
2022-10-14T13:09:04.054Z,19.04
2022-10-14T13:10:26.822Z,19.04
2022-10-14T13:11:29.832Z,19.07
2022-10-14T13:12:38.623Z,19.12
2022-10-14T13:13:50.820Z,19.18
2022-10-14T13:14:58.326Z,19.22
2022-10-14T13:16:01.461Z,19.27
2022-10-14T13:17:24.573Z,19.31
2022-10-14T13:18:35.101Z,19.31
2022-10-14T13:19:39.729Z,19.31
2022-10-14T13:20:45.340Z,19.33
2022-10-14T13:21:48.565Z,19.34
2022-10-14T13:22:52.262Z,19.35
2022-10-14T13:23:55.843Z,19.44
2022-10-14T13:25:13.212Z,19.56
2022-10-14T13:26:34.479Z,19.73
2022-10-14T13:27:49.238Z,19.85
2022-10-14T13:29:10.666Z,20.00
2022-10-14T13:30:19.788Z,20.10
2022-10-14T13:31:41.421Z,20.22
2022-10-14T13:32:47.321Z,20.44
2022-10-14T13:33:59.176Z,20.64
2022-10-14T13:35:20.956Z,20.71
2022-10-14T13:36:44.205Z,20.68
2022-10-14T13:37:56.204Z,20.75
2022-10-14T13:39:00.679Z,20.83
2022-10-14T13:41:30.870Z,20.97
2022-10-14T13:42:36.495Z,21.11
2022-10-14T13:43:42.370Z,21.19
2022-10-14T13:45:56.280Z,21.42
2022-10-14T13:47:00.220Z,21.57
2022-10-14T13:48:03.213Z,21.67
2022-10-14T13:49:08.565Z,21.76
2022-10-14T13:50:12.807Z,21.87
2022-10-14T13:51:36.181Z,21.97
2022-10-14T13:52:39.574Z,22.09
2022-10-14T13:53:54.802Z,22.10
2022-10-14T13:55:14.812Z,22.21
2022-10-14T13:56:22.766Z,22.19
2022-10-14T13:57:53.569Z,22.05
2022-10-14T13:58:49.074Z,21.87
2022-10-14T14:01:17.391Z,21.76
2022-10-14T14:02:30.007Z,21.77
2022-10-14T14:03:37.031Z,21.73
2022-10-14T14:04:40.578Z,21.63
2022-10-14T14:05:43.548Z,21.57
2022-10-14T14:07:03.034Z,21.44
2022-10-14T14:08:37.206Z,21.31
2022-10-14T14:09:30.663Z,21.27
2022-10-14T14:10:42.486Z,21.25
2022-10-14T14:11:51.524Z,21.13
2022-10-14T14:12:56.299Z,21.07
2022-10-14T14:14:02.840Z,21.07
2022-10-14T14:15:05.978Z,21.09
2022-10-14T14:16:17.496Z,21.08
2022-10-14T14:17:22.742Z,21.05
2022-10-14T14:18:33.921Z,21.01
2022-10-14T14:19:46.771Z,20.88
2022-10-14T14:20:57.980Z,20.70
2022-10-14T14:22:08.496Z,20.54
2022-10-14T14:23:12.949Z,20.38
2022-10-14T14:24:24.049Z,20.27
2022-10-14T14:25:40.444Z,20.11
2022-10-14T14:26:47.432Z,19.94
2022-10-14T14:27:55.332Z,19.80
2022-10-14T14:28:58.495Z,19.71
2022-10-14T14:30:02.343Z,19.65
2022-10-14T14:31:05.276Z,19.54
2022-10-14T14:32:13.727Z,19.39
2022-10-14T14:33:19.782Z,19.26
2022-10-14T14:34:23.664Z,19.18
2022-10-14T14:35:26.984Z,19.13
2022-10-14T14:36:50.079Z,19.09
2022-10-14T14:37:56.067Z,19.04
2022-10-14T14:39:01.518Z,18.98
2022-10-14T14:40:06.136Z,18.90
2022-10-14T14:41:12.321Z,18.79
2022-10-14T14:42:23.440Z,18.68
2022-10-14T14:43:31.306Z,18.58
2022-10-14T14:44:34.757Z,18.50
2022-10-14T14:45:42.481Z,18.45
2022-10-14T14:46:45.602Z,18.37
2022-10-14T14:47:50.129Z,18.28
2022-10-14T14:48:55.356Z,18.20
2022-10-14T14:50:25.039Z,18.13
2022-10-14T14:51:22.686Z,18.07
2022-10-14T14:52:27.193Z,18.02
2022-10-14T14:53:30.162Z,17.94
2022-10-14T14:54:33.164Z,17.90
2022-10-14T14:55:38.698Z,17.86
2022-10-14T14:56:43.970Z,17.81
2022-10-14T14:57:54.993Z,17.74